createdAt,value
2023-04-27T00:02:24.448Z,7.65
2023-04-27T00:04:53.697Z,7.51
2023-04-27T00:07:21.897Z,7.57
2023-04-27T00:09:49.833Z,7.50
2023-04-27T00:12:18.018Z,7.64
2023-04-27T00:14:46.256Z,7.68
2023-04-27T00:17:37.795Z,7.61
2023-04-27T00:20:08.320Z,7.63
2023-04-27T00:22:36.778Z,7.52
2023-04-27T00:25:05.087Z,7.50
2023-04-27T00:27:33.170Z,7.52
2023-04-27T00:30:01.123Z,7.55
2023-04-27T00:32:29.138Z,7.62
2023-04-27T00:34:57.042Z,7.59
2023-04-27T00:37:25.151Z,7.69
2023-04-27T00:39:53.079Z,7.62
2023-04-27T00:42:21.765Z,7.61
2023-04-27T00:44:52.427Z,7.65
2023-04-27T00:47:20.599Z,7.49
2023-04-27T00:49:48.670Z,7.56
2023-04-27T00:52:16.743Z,7.39
2023-04-27T00:54:45.177Z,7.35
2023-04-27T00:57:13.091Z,7.30
2023-04-27T00:59:40.983Z,7.39
2023-04-27T01:02:10.976Z,7.34
2023-04-27T01:09:19.684Z,7.49
2023-04-27T01:11:51.145Z,7.42
2023-04-27T01:14:19.729Z,7.39
2023-04-27T01:16:48.035Z,7.25
2023-04-27T01:19:16.287Z,7.27
2023-04-27T01:21:44.386Z,7.10
2023-04-27T01:24:12.377Z,7.24
2023-04-27T01:26:40.250Z,7.22
2023-04-27T01:29:08.295Z,7.24
2023-04-27T01:31:36.472Z,7.19
2023-04-27T01:34:04.774Z,7.19
2023-04-27T01:36:32.706Z,7.21
2023-04-27T01:39:01.016Z,7.13
2023-04-27T01:41:29.001Z,7.05
2023-04-27T01:43:56.984Z,7.01
2023-04-27T01:46:24.959Z,6.90
2023-04-27T01:48:52.989Z,6.85
2023-04-27T01:51:21.536Z,6.87
2023-04-27T01:53:52.927Z,6.85
2023-04-27T01:56:20.872Z,6.74
2023-04-27T01:58:49.299Z,6.67
2023-04-27T02:01:17.367Z,6.53
2023-04-27T02:03:45.859Z,6.57
2023-04-27T02:06:14.027Z,6.66
2023-04-27T02:08:42.044Z,6.61
2023-04-27T02:11:10.003Z,6.52
2023-04-27T02:13:38.074Z,6.45
2023-04-27T02:16:06.883Z,6.51
2023-04-27T02:18:35.353Z,6.44
2023-04-27T02:21:10.058Z,6.51
2023-04-27T02:23:38.160Z,6.56
2023-04-27T02:26:06.466Z,6.53
2023-04-27T02:28:34.635Z,6.41
2023-04-27T02:31:03.374Z,6.40
2023-04-27T02:33:31.704Z,6.30
2023-04-27T02:35:59.821Z,6.23
2023-04-27T02:38:30.264Z,6.25
2023-04-27T02:40:58.269Z,6.25
2023-04-27T02:43:27.379Z,6.23
2023-04-27T02:45:58.366Z,6.13
2023-04-27T02:48:30.712Z,6.23
2023-04-27T02:50:58.903Z,6.23
2023-04-27T02:55:14.685Z,6.17
2023-04-27T02:57:43.213Z,6.12
2023-04-27T03:00:12.180Z,6.16
2023-04-27T03:02:40.229Z,6.16
2023-04-27T03:05:08.834Z,6.10
2023-04-27T03:07:36.949Z,6.05
2023-04-27T03:10:05.505Z,6.05
2023-04-27T03:12:33.429Z,6.10
2023-04-27T03:15:01.524Z,6.09
2023-04-27T03:17:30.173Z,6.05
2023-04-27T03:19:58.117Z,6.05
2023-04-27T03:22:26.051Z,6.04
2023-04-27T03:24:54.092Z,6.05
2023-04-27T03:27:22.111Z,6.01
2023-04-27T03:29:54.530Z,6.01
2023-04-27T03:32:22.610Z,5.94
2023-04-27T03:34:50.565Z,5.91
2023-04-27T03:37:18.738Z,5.96
2023-04-27T03:39:46.656Z,6.02
2023-04-27T03:42:15.008Z,5.99
2023-04-27T03:44:42.980Z,6.01
2023-04-27T03:47:10.929Z,6.03
2023-04-27T03:49:40.389Z,5.99
2023-04-27T03:52:09.261Z,6.10
2023-04-27T03:54:37.429Z,6.01
2023-04-27T03:57:05.465Z,6.19
2023-04-27T03:59:33.420Z,6.21
2023-04-27T04:02:01.712Z,6.25
2023-04-27T04:04:30.057Z,6.28
2023-04-27T04:06:58.153Z,6.36
2023-04-27T04:09:26.521Z,6.44
2023-04-27T04:11:55.818Z,6.52
2023-04-27T04:14:23.941Z,6.48
2023-04-27T04:16:52.707Z,6.58
2023-04-27T04:19:22.204Z,6.60
2023-04-27T04:21:50.987Z,6.63
2023-04-27T04:24:20.240Z,6.66
2023-04-27T04:26:48.821Z,6.87
2023-04-27T04:29:16.954Z,7.00
2023-04-27T04:31:45.544Z,7.03
2023-04-27T04:34:14.785Z,7.12
2023-04-27T04:36:42.952Z,7.09
2023-04-27T04:39:12.991Z,7.26
2023-04-27T04:41:41.395Z,7.20
2023-04-27T04:44:12.754Z,7.20
2023-04-27T04:46:40.776Z,7.21
2023-04-27T04:49:09.333Z,7.19
2023-04-27T04:51:42.102Z,7.30
2023-04-27T04:54:10.792Z,7.27
2023-04-27T04:56:38.982Z,7.36
2023-04-27T04:59:07.397Z,7.30
2023-04-27T05:01:35.520Z,7.32
2023-04-27T05:04:03.792Z,7.24
2023-04-27T05:06:32.602Z,7.22
2023-04-27T05:09:00.858Z,7.38
2023-04-27T05:11:28.832Z,7.56
2023-04-27T05:13:56.874Z,7.51
2023-04-27T05:16:26.713Z,7.54
2023-04-27T05:18:55.068Z,7.46
2023-04-27T05:21:23.394Z,7.56
2023-04-27T05:23:51.291Z,7.59
2023-04-27T05:26:19.477Z,7.74
2023-04-27T05:28:47.488Z,7.54
2023-04-27T05:31:15.455Z,7.62
2023-04-27T05:33:43.460Z,7.71
2023-04-27T05:36:11.577Z,7.68
2023-04-27T05:38:40.701Z,7.69
2023-04-27T05:41:08.512Z,7.78
2023-04-27T05:43:38.272Z,7.92
2023-04-27T05:46:06.465Z,7.90
2023-04-27T05:48:34.777Z,7.94
2023-04-27T05:51:03.729Z,8.14
2023-04-27T05:53:32.908Z,7.83
2023-04-27T05:56:01.429Z,8.20
2023-04-27T05:58:29.397Z,8.25
2023-04-27T06:00:57.818Z,8.22
2023-04-27T06:03:26.331Z,8.18
2023-04-27T06:05:58.644Z,8.45
2023-04-27T06:08:28.060Z,8.85
2023-04-27T06:10:56.057Z,8.58
2023-04-27T06:13:24.365Z,9.06
2023-04-27T06:15:52.457Z,9.37
2023-04-27T06:18:20.658Z,9.44
2023-04-27T06:20:48.608Z,9.49
2023-04-27T06:23:16.637Z,9.56
2023-04-27T06:25:44.676Z,9.70
2023-04-27T06:28:12.806Z,9.84
2023-04-27T06:30:40.800Z,9.95
2023-04-27T06:33:09.529Z,10.52
2023-04-27T06:35:37.441Z,10.97
2023-04-27T06:38:07.586Z,11.28
2023-04-27T06:40:37.343Z,11.85
2023-04-27T06:43:05.362Z,12.92
2023-04-27T06:45:33.299Z,13.69
2023-04-27T06:48:01.306Z,13.46
2023-04-27T06:50:29.787Z,15.01
2023-04-27T06:52:57.490Z,15.98
2023-04-27T06:55:25.831Z,16.17
2023-04-27T06:57:53.753Z,17.14
2023-04-27T07:00:21.814Z,16.04
2023-04-27T07:02:49.852Z,14.63
2023-04-27T07:05:17.968Z,13.99
2023-04-27T07:07:46.368Z,13.51
2023-04-27T07:10:14.479Z,13.36
2023-04-27T07:12:42.892Z,13.33
2023-04-27T07:15:11.395Z,13.42
2023-04-27T07:17:39.494Z,14.09
2023-04-27T07:20:08.830Z,14.66
2023-04-27T07:22:36.872Z,15.95
2023-04-27T07:25:05.764Z,17.90
2023-04-27T07:27:33.486Z,19.28
2023-04-27T07:30:01.362Z,20.94
2023-04-27T07:32:29.709Z,21.97
2023-04-27T07:34:58.388Z,21.41
2023-04-27T07:37:26.991Z,22.30
2023-04-27T07:39:55.077Z,22.89
2023-04-27T07:42:23.706Z,22.58
2023-04-27T07:44:52.686Z,22.15
2023-04-27T07:47:21.041Z,21.90
2023-04-27T07:49:49.237Z,21.99
2023-04-27T07:52:17.154Z,23.06
2023-04-27T07:54:44.982Z,22.58
2023-04-27T07:57:12.952Z,22.68
2023-04-27T07:59:40.927Z,22.03
2023-04-27T08:02:19.229Z,22.35
2023-04-27T08:04:50.162Z,20.77
2023-04-27T08:07:19.416Z,19.91
2023-04-27T08:09:51.053Z,21.16
2023-04-27T08:12:19.718Z,21.60
2023-04-27T08:14:47.474Z,21.40
2023-04-27T08:17:15.514Z,21.51
2023-04-27T08:19:43.434Z,21.14
2023-04-27T08:22:11.430Z,21.29
2023-04-27T08:24:39.444Z,21.08
2023-04-27T08:27:07.682Z,21.33
2023-04-27T08:29:36.035Z,21.75
2023-04-27T08:32:05.244Z,19.96
2023-04-27T08:34:33.349Z,20.66
2023-04-27T08:37:02.531Z,21.20
2023-04-27T08:39:30.841Z,21.41
2023-04-27T08:41:58.874Z,21.79
2023-04-27T08:44:27.208Z,21.41
2023-04-27T08:46:55.158Z,21.12
2023-04-27T08:49:23.274Z,21.61
2023-04-27T08:51:51.114Z,22.05
2023-04-27T08:54:35.977Z,22.65
2023-04-27T08:57:10.040Z,22.01
2023-04-27T08:59:38.715Z,19.95
2023-04-27T09:02:07.967Z,20.80
2023-04-27T09:04:49.437Z,20.09
2023-04-27T09:07:18.622Z,18.06
2023-04-27T09:09:48.640Z,16.99
2023-04-27T09:12:22.284Z,15.97
2023-04-27T09:14:57.736Z,15.55
2023-04-27T09:17:28.170Z,15.11
2023-04-27T09:20:13.868Z,15.04
2023-04-27T09:22:55.876Z,15.15
2023-04-27T09:25:32.607Z,15.62
2023-04-27T09:28:01.520Z,15.48
2023-04-27T09:30:30.749Z,15.46
2023-04-27T09:33:04.321Z,15.58
2023-04-27T09:35:33.706Z,14.95
2023-04-27T09:38:01.853Z,14.45
2023-04-27T09:40:31.514Z,14.60
2023-04-27T09:43:01.981Z,14.73
2023-04-27T09:45:30.118Z,14.50
2023-04-27T09:47:58.857Z,14.57
2023-04-27T09:50:27.124Z,14.46
2023-04-27T09:52:54.972Z,14.88
2023-04-27T09:55:31.394Z,14.62
2023-04-27T09:58:16.417Z,14.51
2023-04-27T10:01:09.263Z,14.72
2023-04-27T10:04:16.111Z,14.53
2023-04-27T10:06:44.083Z,14.73
2023-04-27T10:09:13.526Z,14.71
2023-04-27T10:11:44.828Z,14.77
2023-04-27T10:14:18.496Z,14.28
2023-04-27T10:16:56.219Z,14.17
2023-04-27T10:19:25.443Z,14.26
2023-04-27T10:22:08.616Z,13.77
2023-04-27T10:24:42.992Z,14.43
2023-04-27T10:27:13.750Z,15.06
2023-04-27T10:29:43.722Z,15.40
2023-04-27T10:32:21.679Z,15.66
2023-04-27T10:34:51.456Z,15.62
2023-04-27T10:37:25.760Z,14.81
2023-04-27T10:40:07.600Z,15.24
2023-04-27T10:42:35.606Z,14.97
2023-04-27T10:45:03.756Z,15.17
2023-04-27T10:47:43.855Z,14.86
2023-04-27T10:50:16.101Z,14.84
2023-04-27T10:52:46.457Z,15.03
2023-04-27T10:55:19.176Z,14.89
2023-04-27T10:57:55.700Z,14.93
2023-04-27T11:00:34.355Z,15.31
2023-04-27T11:03:31.996Z,15.42
2023-04-27T11:06:04.482Z,15.67
2023-04-27T11:08:36.950Z,15.35
2023-04-27T11:11:06.367Z,15.88
2023-04-27T11:13:34.427Z,16.11
2023-04-27T11:16:05.105Z,15.76
2023-04-27T11:18:36.151Z,15.42
2023-04-27T11:21:08.783Z,15.31
2023-04-27T11:23:38.401Z,15.16
2023-04-27T11:26:19.062Z,14.79
2023-04-27T11:29:12.867Z,15.07
2023-04-27T11:31:51.799Z,15.62
2023-04-27T11:34:25.976Z,15.80
2023-04-27T11:39:35.508Z,15.47
2023-04-27T11:42:21.086Z,15.32
2023-04-27T11:45:00.251Z,15.19
2023-04-27T11:47:33.861Z,15.35
2023-04-27T11:50:05.266Z,15.47
2023-04-27T11:52:35.806Z,15.57
2023-04-27T11:55:05.406Z,15.32
2023-04-27T11:57:36.297Z,15.03
2023-04-27T12:00:16.813Z,14.88
2023-04-27T12:02:45.392Z,14.61
2023-04-27T12:05:14.067Z,14.01
2023-04-27T12:07:43.701Z,14.14
2023-04-27T12:10:12.168Z,14.00
2023-04-27T12:12:40.922Z,14.45
2023-04-27T12:15:09.468Z,14.59
2023-04-27T12:17:39.324Z,14.66
2023-04-27T12:20:07.963Z,14.78
2023-04-27T12:22:35.982Z,14.76
2023-04-27T12:25:04.415Z,14.88
2023-04-27T12:27:32.516Z,14.78
2023-04-27T12:30:01.510Z,14.81
2023-04-27T12:32:29.976Z,14.66
2023-04-27T12:34:58.092Z,14.99
2023-04-27T12:37:27.151Z,14.99
2023-04-27T12:39:55.520Z,14.87
2023-04-27T12:42:24.553Z,14.81
2023-04-27T12:44:53.665Z,14.84
2023-04-27T12:47:43.150Z,14.79
2023-04-27T12:50:10.906Z,14.53
2023-04-27T12:52:39.028Z,15.05
2023-04-27T12:55:15.225Z,15.03
2023-04-27T12:57:50.103Z,14.89
2023-04-27T13:00:18.579Z,14.76
2023-04-27T13:02:46.554Z,14.49
2023-04-27T13:05:14.966Z,14.47
2023-04-27T13:07:43.085Z,14.44
2023-04-27T13:10:12.381Z,14.18
2023-04-27T13:12:40.789Z,14.45
2023-04-27T13:15:09.850Z,14.63
2023-04-27T13:17:38.288Z,14.73
2023-04-27T13:20:09.542Z,15.15
2023-04-27T13:22:38.096Z,15.36
2023-04-27T13:25:07.527Z,15.39
2023-04-27T13:27:35.894Z,15.09
2023-04-27T13:30:05.409Z,15.17
2023-04-27T13:32:34.102Z,15.16
2023-04-27T13:35:02.047Z,15.48
2023-04-27T13:37:30.139Z,15.40
2023-04-27T13:39:57.935Z,15.43
2023-04-27T13:42:29.714Z,15.26
2023-04-27T13:44:57.825Z,15.32
2023-04-27T13:47:25.802Z,15.32
2023-04-27T13:49:53.813Z,15.39
2023-04-27T13:52:21.875Z,15.44
2023-04-27T13:54:49.859Z,15.67
2023-04-27T13:57:18.183Z,15.54
2023-04-27T13:59:46.272Z,15.59
2023-04-27T14:02:14.408Z,15.46
2023-04-27T14:04:42.471Z,15.22
2023-04-27T14:07:10.657Z,14.95
2023-04-27T14:09:38.518Z,15.17
2023-04-27T14:12:06.680Z,15.09
2023-04-27T14:14:36.432Z,15.10
2023-04-27T14:17:05.073Z,14.79
2023-04-27T14:19:33.584Z,14.79
2023-04-27T14:22:02.192Z,14.56
2023-04-27T14:24:30.406Z,14.32
2023-04-27T14:26:58.561Z,14.19
2023-04-27T14:29:26.933Z,14.28
2023-04-27T14:31:56.248Z,14.12
2023-04-27T14:34:24.526Z,14.14
2023-04-27T14:36:52.444Z,13.88
2023-04-27T14:39:20.780Z,13.73
2023-04-27T14:41:49.210Z,13.36
2023-04-27T14:44:17.465Z,13.58
2023-04-27T14:46:45.933Z,13.53
2023-04-27T14:49:15.215Z,13.27
2023-04-27T14:51:43.881Z,13.27
2023-04-27T14:54:12.586Z,13.14
2023-04-27T14:56:41.567Z,12.95
2023-04-27T14:59:09.918Z,13.14
2023-04-27T15:01:38.675Z,13.11
2023-04-27T15:04:12.637Z,13.30
2023-04-27T15:06:41.555Z,13.31
2023-04-27T15:09:12.529Z,13.24
2023-04-27T15:11:41.703Z,13.07
2023-04-27T15:14:11.807Z,13.08
2023-04-27T15:16:40.498Z,12.95
2023-04-27T15:19:08.808Z,13.07
2023-04-27T15:21:36.853Z,13.04
2023-04-27T15:24:05.377Z,13.04
2023-04-27T15:26:33.889Z,13.12
2023-04-27T15:29:02.176Z,13.10
2023-04-27T15:31:30.558Z,12.94
2023-04-27T15:33:58.837Z,13.09
2023-04-27T15:36:28.593Z,13.11
2023-04-27T15:38:58.138Z,13.17
2023-04-27T15:41:26.622Z,13.23
2023-04-27T15:43:55.193Z,13.26
2023-04-27T15:46:23.622Z,13.20
2023-04-27T15:48:52.080Z,12.97
2023-04-27T15:51:20.330Z,12.82
2023-04-27T15:53:48.650Z,12.76
2023-04-27T15:56:17.143Z,12.62
2023-04-27T15:58:46.554Z,12.45
2023-04-27T16:01:15.246Z,12.23
2023-04-27T16:03:43.885Z,12.13
2023-04-27T16:06:12.430Z,12.02
2023-04-27T16:08:40.881Z,12.01
2023-04-27T16:11:09.429Z,11.84
2023-04-27T16:13:37.833Z,11.67
2023-04-27T16:16:08.896Z,11.55
2023-04-27T16:18:39.043Z,11.52
2023-04-27T16:21:07.448Z,11.34
2023-04-27T16:23:36.053Z,11.42
2023-04-27T16:26:04.404Z,11.38
2023-04-27T16:28:33.535Z,11.39
2023-04-27T16:31:01.956Z,11.26
2023-04-27T16:33:30.764Z,11.19
2023-04-27T16:35:59.250Z,11.15
2023-04-27T16:38:28.225Z,11.17
2023-04-27T16:40:57.396Z,11.09
2023-04-27T16:43:26.007Z,10.91
2023-04-27T16:45:56.188Z,10.82
2023-04-27T16:48:24.735Z,10.77
2023-04-27T16:50:54.736Z,10.58
2023-04-27T16:53:24.225Z,10.63
2023-04-27T16:55:52.318Z,10.52
2023-04-27T16:58:21.042Z,10.52
2023-04-27T17:00:49.626Z,10.42
2023-04-27T17:03:18.110Z,10.42
2023-04-27T17:05:46.602Z,10.37
2023-04-27T17:08:15.166Z,10.25
2023-04-27T17:10:45.649Z,10.14
2023-04-27T17:13:16.913Z,10.21
2023-04-27T17:15:45.272Z,10.10
2023-04-27T17:18:13.658Z,9.92
2023-04-27T17:20:42.405Z,9.90
2023-04-27T17:23:11.128Z,9.94
2023-04-27T17:25:40.135Z,9.91
2023-04-27T17:28:08.838Z,9.81
2023-04-27T17:30:37.910Z,9.80
2023-04-27T17:33:06.590Z,9.70
2023-04-27T17:35:35.144Z,9.61
2023-04-27T17:38:03.912Z,9.67
2023-04-27T17:40:33.199Z,9.63
2023-04-27T17:43:01.720Z,9.55
2023-04-27T17:45:32.183Z,9.49
2023-04-27T17:48:00.937Z,9.54
2023-04-27T17:50:31.208Z,9.58
2023-04-27T17:52:59.695Z,9.48
2023-04-27T17:55:28.029Z,9.44
2023-04-27T17:57:56.715Z,9.43
2023-04-27T18:00:25.127Z,9.41
2023-04-27T18:02:53.793Z,9.43
2023-04-27T18:05:22.409Z,9.41
2023-04-27T18:07:51.006Z,9.39
2023-04-27T18:10:19.374Z,9.36
2023-04-27T18:12:47.840Z,9.32
2023-04-27T18:15:16.244Z,9.26
2023-04-27T18:17:45.591Z,9.34
2023-04-27T18:20:16.100Z,9.38
2023-04-27T18:22:44.685Z,9.32
2023-04-27T18:25:13.681Z,9.33
2023-04-27T18:27:44.424Z,9.36
2023-04-27T18:30:13.313Z,9.20
2023-04-27T18:32:41.709Z,9.35
2023-04-27T18:35:10.577Z,9.35
2023-04-27T18:37:38.952Z,9.33
2023-04-27T18:40:08.859Z,9.33
2023-04-27T18:42:37.489Z,9.29
2023-04-27T18:45:06.565Z,9.16
2023-04-27T18:47:35.396Z,9.27
2023-04-27T18:53:57.703Z,9.09
2023-04-27T18:56:26.488Z,9.01
2023-04-27T18:58:54.843Z,8.98
2023-04-27T19:01:27.978Z,8.99
2023-04-27T19:03:59.630Z,8.91
2023-04-27T19:06:28.335Z,8.99
2023-04-27T19:08:56.897Z,9.02
2023-04-27T19:11:25.999Z,9.04
2023-04-27T19:13:54.314Z,9.10
2023-04-27T19:16:24.425Z,9.03
2023-04-27T19:18:52.964Z,8.90
2023-04-27T19:21:21.734Z,8.96
2023-04-27T19:23:50.057Z,9.02
2023-04-27T19:26:18.447Z,8.94
2023-04-27T19:28:47.279Z,8.98
2023-04-27T19:31:15.875Z,9.04
2023-04-27T19:33:47.267Z,8.98
2023-04-27T19:36:23.523Z,9.03
2023-04-27T19:38:52.244Z,9.09
2023-04-27T19:41:21.246Z,9.12
2023-04-27T19:43:50.075Z,9.02
2023-04-27T19:46:18.580Z,9.03
2023-04-27T19:48:47.140Z,9.05
2023-04-27T19:51:15.549Z,9.02
2023-04-27T19:53:43.864Z,9.10
2023-04-27T19:56:12.580Z,9.07
2023-04-27T19:58:41.199Z,9.10
2023-04-27T20:01:10.378Z,9.15
2023-04-27T20:03:40.621Z,9.19
2023-04-27T20:06:10.593Z,9.22
2023-04-27T20:08:39.131Z,8.98
2023-04-27T20:11:07.586Z,9.02
2023-04-27T20:13:36.204Z,9.02
2023-04-27T20:16:05.502Z,9.01
2023-04-27T20:18:34.129Z,8.96
2023-04-27T20:21:03.733Z,8.90
2023-04-27T20:23:32.499Z,8.91
2023-04-27T20:26:00.548Z,8.91
2023-04-27T20:28:30.330Z,8.88
2023-04-27T20:30:59.253Z,8.97
2023-04-27T20:33:27.120Z,8.99
2023-04-27T20:36:03.521Z,8.96
2023-04-27T20:38:35.233Z,8.82
2023-04-27T20:41:04.983Z,8.82
2023-04-27T20:43:32.898Z,8.79
2023-04-27T20:46:01.424Z,8.80
2023-04-27T20:48:29.820Z,8.75
2023-04-27T20:50:57.786Z,8.77
2023-04-27T20:53:26.630Z,8.69
2023-04-27T20:55:55.806Z,8.77
2023-04-27T20:58:24.197Z,8.81
2023-04-27T21:00:55.240Z,8.81
2023-04-27T21:03:23.419Z,8.90
2023-04-27T21:05:54.070Z,8.85
2023-04-27T21:08:22.156Z,8.82
2023-04-27T21:10:50.333Z,8.73
2023-04-27T21:13:18.402Z,8.89
2023-04-27T21:15:46.543Z,8.89
2023-04-27T21:18:29.135Z,8.82
2023-04-27T21:20:58.852Z,8.89
2023-04-27T21:23:26.871Z,8.86
2023-04-27T21:25:54.971Z,8.74
2023-04-27T21:28:22.906Z,8.78
2023-04-27T21:30:54.491Z,8.84
2023-04-27T21:33:22.763Z,8.72
2023-04-27T21:35:50.709Z,8.79
2023-04-27T21:38:18.741Z,8.78
2023-04-27T21:40:46.603Z,8.66
2023-04-27T21:43:14.479Z,8.60
2023-04-27T21:45:42.923Z,8.58
2023-04-27T21:48:11.233Z,8.53
2023-04-27T21:50:39.008Z,8.46
2023-04-27T21:53:07.049Z,8.47
2023-04-27T21:55:35.050Z,8.42
2023-04-27T21:58:02.953Z,8.37
2023-04-27T22:00:31.018Z,8.32
2023-04-27T22:02:58.963Z,8.18
2023-04-27T22:05:29.452Z,8.16
2023-04-27T22:07:58.133Z,8.03
2023-04-27T22:10:26.225Z,8.11
2023-04-27T22:12:54.870Z,8.04
2023-04-27T22:15:23.709Z,7.91
2023-04-27T22:17:51.686Z,8.03
2023-04-27T22:20:19.847Z,7.97
2023-04-27T22:22:47.680Z,8.01
2023-04-27T22:25:16.148Z,7.93
2023-04-27T22:27:45.319Z,7.87
2023-04-27T22:30:14.594Z,7.88
2023-04-27T22:32:43.799Z,7.92
2023-04-27T22:35:24.777Z,7.84
2023-04-27T22:37:59.345Z,7.67
2023-04-27T22:40:27.420Z,7.69
2023-04-27T22:42:56.232Z,7.55
2023-04-27T22:45:24.137Z,7.56
2023-04-27T22:47:52.124Z,7.44
2023-04-27T22:50:20.215Z,7.46
2023-04-27T22:52:48.490Z,7.47
2023-04-27T22:55:16.409Z,7.42
2023-04-27T22:57:44.874Z,7.33
2023-04-27T23:00:13.183Z,7.34
2023-04-27T23:02:41.777Z,7.36
2023-04-27T23:05:13.560Z,7.36
2023-04-27T23:07:43.065Z,7.26
2023-04-27T23:10:11.277Z,7.23
2023-04-27T23:12:39.282Z,7.21
2023-04-27T23:15:07.694Z,7.18
2023-04-27T23:17:36.102Z,7.22
2023-04-27T23:20:24.089Z,7.28
2023-04-27T23:22:55.119Z,7.27
2023-04-27T23:25:23.200Z,7.17
2023-04-27T23:27:52.497Z,7.17
2023-04-27T23:30:22.226Z,7.12
2023-04-27T23:32:50.660Z,7.12
2023-04-27T23:40:44.590Z,6.85
2023-04-27T23:43:12.427Z,6.86
2023-04-27T23:45:40.275Z,6.81
2023-04-27T23:48:08.217Z,6.76
2023-04-27T23:50:36.182Z,6.76
2023-04-27T23:53:04.243Z,6.67
2023-04-27T23:55:34.937Z,6.62
2023-04-27T23:58:03.675Z,6.58
